sensor_id;sensor_type;location;lat;lon;timestamp;P1;durP1;ratioP1;P2;durP2;ratioP2
41221;SDS011;26952;42.884;23.918;2023-03-17T00:00:10;2.13;;;2.03;;
41221;SDS011;26952;42.884;23.918;2023-03-17T00:02:38;2.10;;;2.00;;
41221;SDS011;26952;42.884;23.918;2023-03-17T00:05:17;2.58;;;2.38;;
41221;SDS011;26952;42.884;23.918;2023-03-17T00:07:45;2.58;;;2.38;;
41221;SDS011;26952;42.884;23.918;2023-03-17T00:10:15;2.58;;;2.38;;
41221;SDS011;26952;42.884;23.918;2023-03-17T00:12:43;2.20;;;2.10;;
41221;SDS011;26952;42.884;23.918;2023-03-17T00:15:09;2.17;;;2.08;;
41221;SDS011;26952;42.884;23.918;2023-03-17T00:17:38;2.60;;;2.42;;
41221;SDS011;26952;42.884;23.918;2023-03-17T00:20:04;2.42;;;2.22;;
41221;SDS011;26952;42.884;23.918;2023-03-17T00:22:31;2.70;;;2.50;;
41221;SDS011;26952;42.884;23.918;2023-03-17T00:24:56;2.65;;;2.53;;
41221;SDS011;26952;42.884;23.918;2023-03-17T00:27:22;2.42;;;2.33;;
41221;SDS011;26952;42.884;23.918;2023-03-17T00:29:47;2.78;;;2.58;;
41221;SDS011;26952;42.884;23.918;2023-03-17T00:32:15;2.60;;;2.40;;
41221;SDS011;26952;42.884;23.918;2023-03-17T00:34:43;6.28;;;2.50;;
41221;SDS011;26952;42.884;23.918;2023-03-17T00:37:09;2.55;;;2.35;;
41221;SDS011;26952;42.884;23.918;2023-03-17T00:39:37;2.33;;;2.22;;
41221;SDS011;26952;42.884;23.918;2023-03-17T00:42:03;2.47;;;2.38;;
41221;SDS011;26952;42.884;23.918;2023-03-17T00:44:30;2.47;;;2.38;;
41221;SDS011;26952;42.884;23.918;2023-03-17T00:46:55;2.92;;;2.72;;
41221;SDS011;26952;42.884;23.918;2023-03-17T00:49:22;3.13;;;2.92;;
41221;SDS011;26952;42.884;23.918;2023-03-17T00:51:49;3.15;;;3.00;;
41221;SDS011;26952;42.884;23.918;2023-03-17T00:54:15;3.08;;;2.88;;
41221;SDS011;26952;42.884;23.918;2023-03-17T00:56:42;3.33;;;3.03;;
41221;SDS011;26952;42.884;23.918;2023-03-17T00:59:14;3.05;;;2.88;;
41221;SDS011;26952;42.884;23.918;2023-03-17T01:01:45;3.03;;;2.83;;
41221;SDS011;26952;42.884;23.918;2023-03-17T01:04:11;3.17;;;2.97;;
41221;SDS011;26952;42.884;23.918;2023-03-17T01:06:36;3.10;;;2.90;;
41221;SDS011;26952;42.884;23.918;2023-03-17T01:09:02;4.00;;;3.63;;
41221;SDS011;26952;42.884;23.918;2023-03-17T01:11:29;3.92;;;3.63;;
41221;SDS011;26952;42.884;23.918;2023-03-17T01:13:55;3.80;;;3.50;;
41221;SDS011;26952;42.884;23.918;2023-03-17T01:16:21;3.90;;;3.60;;
41221;SDS011;26952;42.884;23.918;2023-03-17T01:18:47;3.75;;;3.42;;
41221;SDS011;26952;42.884;23.918;2023-03-17T01:21:13;3.00;;;2.80;;
41221;SDS011;26952;42.884;23.918;2023-03-17T01:23:39;3.20;;;3.00;;
41221;SDS011;26952;42.884;23.918;2023-03-17T01:26:05;3.13;;;2.92;;
41221;SDS011;26952;42.884;23.918;2023-03-17T01:28:30;3.08;;;2.88;;
41221;SDS011;26952;42.884;23.918;2023-03-17T01:30:56;3.53;;;3.33;;
41221;SDS011;26952;42.884;23.918;2023-03-17T01:33:22;3.30;;;3.10;;
41221;SDS011;26952;42.884;23.918;2023-03-17T01:35:48;3.38;;;3.17;;
41221;SDS011;26952;42.884;23.918;2023-03-17T01:38:14;3.50;;;3.30;;
41221;SDS011;26952;42.884;23.918;2023-03-17T01:40:44;3.53;;;3.33;;
41221;SDS011;26952;42.884;23.918;2023-03-17T01:48:57;2.78;;;2.65;;
41221;SDS011;26952;42.884;23.918;2023-03-17T01:54:00;2.88;;;2.67;;
41221;SDS011;26952;42.884;23.918;2023-03-17T01:56:28;2.95;;;2.75;;
41221;SDS011;26952;42.884;23.918;2023-03-17T01:58:55;3.08;;;2.88;;
41221;SDS011;26952;42.884;23.918;2023-03-17T02:01:25;3.25;;;3.05;;
41221;SDS011;26952;42.884;23.918;2023-03-17T02:03:56;3.42;;;2.90;;
41221;SDS011;26952;42.884;23.918;2023-03-17T02:06:23;3.35;;;3.15;;
41221;SDS011;26952;42.884;23.918;2023-03-17T02:08:49;3.30;;;3.10;;
41221;SDS011;26952;42.884;23.918;2023-03-17T02:11:16;3.53;;;3.22;;
41221;SDS011;26952;42.884;23.918;2023-03-17T02:13:42;7.30;;;6.53;;
41221;SDS011;26952;42.884;23.918;2023-03-17T02:16:12;6.30;;;5.68;;
41221;SDS011;26952;42.884;23.918;2023-03-17T02:18:40;4.68;;;4.30;;
41221;SDS011;26952;42.884;23.918;2023-03-17T02:21:27;8.40;;;7.55;;
41221;SDS011;26952;42.884;23.918;2023-03-17T02:23:56;5.13;;;4.55;;
41221;SDS011;26952;42.884;23.918;2023-03-17T02:26:24;4.03;;;3.72;;
41221;SDS011;26952;42.884;23.918;2023-03-17T02:28:52;3.38;;;3.17;;
41221;SDS011;26952;42.884;23.918;2023-03-17T02:31:18;3.55;;;3.25;;
41221;SDS011;26952;42.884;23.918;2023-03-17T02:33:43;3.10;;;2.90;;
41221;SDS011;26952;42.884;23.918;2023-03-17T02:36:09;3.95;;;3.65;;
41221;SDS011;26952;42.884;23.918;2023-03-17T02:38:35;4.90;;;4.07;;
41221;SDS011;26952;42.884;23.918;2023-03-17T02:41:01;4.47;;;4.07;;
41221;SDS011;26952;42.884;23.918;2023-03-17T02:43:26;4.10;;;3.70;;
41221;SDS011;26952;42.884;23.918;2023-03-17T02:45:52;5.72;;;5.22;;
41221;SDS011;26952;42.884;23.918;2023-03-17T02:48:17;5.25;;;4.75;;
41221;SDS011;26952;42.884;23.918;2023-03-17T02:50:43;4.78;;;4.38;;
41221;SDS011;26952;42.884;23.918;2023-03-17T02:53:08;5.30;;;4.78;;
41221;SDS011;26952;42.884;23.918;2023-03-17T02:55:34;7.30;;;4.38;;
41221;SDS011;26952;42.884;23.918;2023-03-17T02:58:00;4.43;;;4.07;;
41221;SDS011;26952;42.884;23.918;2023-03-17T03:00:27;5.35;;;4.90;;
41221;SDS011;26952;42.884;23.918;2023-03-17T03:02:52;5.60;;;5.10;;
41221;SDS011;26952;42.884;23.918;2023-03-17T03:05:18;6.25;;;5.63;;
41221;SDS011;26952;42.884;23.918;2023-03-17T03:07:45;6.95;;;6.22;;
41221;SDS011;26952;42.884;23.918;2023-03-17T03:10:10;7.75;;;6.10;;
41221;SDS011;26952;42.884;23.918;2023-03-17T03:12:35;7.72;;;6.85;;
41221;SDS011;26952;42.884;23.918;2023-03-17T03:15:01;7.10;;;6.40;;
41221;SDS011;26952;42.884;23.918;2023-03-17T03:17:26;7.07;;;6.38;;
41221;SDS011;26952;42.884;23.918;2023-03-17T03:19:51;9.85;;;6.38;;
41221;SDS011;26952;42.884;23.918;2023-03-17T03:22:17;8.02;;;5.93;;
41221;SDS011;26952;42.884;23.918;2023-03-17T03:24:43;7.63;;;6.82;;
41221;SDS011;26952;42.884;23.918;2023-03-17T03:27:08;7.47;;;6.70;;
41221;SDS011;26952;42.884;23.918;2023-03-17T03:29:34;6.43;;;5.72;;
41221;SDS011;26952;42.884;23.918;2023-03-17T03:32:00;6.63;;;5.95;;
41221;SDS011;26952;42.884;23.918;2023-03-17T03:34:26;7.68;;;6.97;;
41221;SDS011;26952;42.884;23.918;2023-03-17T03:36:51;7.20;;;6.50;;
41221;SDS011;26952;42.884;23.918;2023-03-17T03:39:17;7.25;;;6.55;;
41221;SDS011;26952;42.884;23.918;2023-03-17T03:41:42;6.95;;;6.35;;
41221;SDS011;26952;42.884;23.918;2023-03-17T03:44:08;6.35;;;5.78;;
41221;SDS011;26952;42.884;23.918;2023-03-17T03:46:33;7.00;;;6.32;;
41221;SDS011;26952;42.884;23.918;2023-03-17T03:48:58;6.22;;;5.72;;
41221;SDS011;26952;42.884;23.918;2023-03-17T03:51:24;6.45;;;5.85;;
41221;SDS011;26952;42.884;23.918;2023-03-17T03:53:49;6.40;;;5.90;;
41221;SDS011;26952;42.884;23.918;2023-03-17T03:56:15;6.45;;;5.38;;
41221;SDS011;26952;42.884;23.918;2023-03-17T03:58:40;5.60;;;5.10;;
41221;SDS011;26952;42.884;23.918;2023-03-17T04:01:06;6.05;;;5.55;;
41221;SDS011;26952;42.884;23.918;2023-03-17T04:03:34;5.28;;;4.85;;
41221;SDS011;26952;42.884;23.918;2023-03-17T04:06:00;5.18;;;4.70;;
41221;SDS011;26952;42.884;23.918;2023-03-17T04:08:25;5.90;;;5.35;;
41221;SDS011;26952;42.884;23.918;2023-03-17T04:10:51;5.30;;;4.78;;
41221;SDS011;26952;42.884;23.918;2023-03-17T04:13:16;6.13;;;5.18;;
41221;SDS011;26952;42.884;23.918;2023-03-17T04:15:42;5.68;;;5.18;;
41221;SDS011;26952;42.884;23.918;2023-03-17T04:18:07;5.65;;;5.15;;
41221;SDS011;26952;42.884;23.918;2023-03-17T04:20:33;5.07;;;4.68;;
41221;SDS011;26952;42.884;23.918;2023-03-17T04:22:59;5.97;;;5.47;;
41221;SDS011;26952;42.884;23.918;2023-03-17T04:25:24;6.10;;;5.55;;
41221;SDS011;26952;42.884;23.918;2023-03-17T04:27:50;6.35;;;5.75;;
41221;SDS011;26952;42.884;23.918;2023-03-17T04:30:15;6.32;;;5.63;;
41221;SDS011;26952;42.884;23.918;2023-03-17T04:32:41;5.47;;;4.85;;
41221;SDS011;26952;42.884;23.918;2023-03-17T04:35:10;5.65;;;5.15;;
41221;SDS011;26952;42.884;23.918;2023-03-17T04:37:37;5.43;;;4.93;;
41221;SDS011;26952;42.884;23.918;2023-03-17T04:40:04;5.63;;;5.03;;
41221;SDS011;26952;42.884;23.918;2023-03-17T04:42:32;6.13;;;5.53;;
41221;SDS011;26952;42.884;23.918;2023-03-17T04:44:57;14.60;;;10.52;;
41221;SDS011;26952;42.884;23.918;2023-03-17T04:47:23;12.18;;;9.50;;
41221;SDS011;26952;42.884;23.918;2023-03-17T04:49:48;14.18;;;11.68;;
41221;SDS011;26952;42.884;23.918;2023-03-17T04:52:13;8.65;;;7.45;;
41221;SDS011;26952;42.884;23.918;2023-03-17T04:54:39;9.13;;;7.60;;
41221;SDS011;26952;42.884;23.918;2023-03-17T04:57:04;6.97;;;6.25;;
41221;SDS011;26952;42.884;23.918;2023-03-17T04:59:30;7.78;;;6.45;;
41221;SDS011;26952;42.884;23.918;2023-03-17T05:01:56;7.80;;;6.63;;
41221;SDS011;26952;42.884;23.918;2023-03-17T05:04:21;8.60;;;7.00;;
41221;SDS011;26952;42.884;23.918;2023-03-17T05:06:46;10.27;;;8.60;;
41221;SDS011;26952;42.884;23.918;2023-03-17T05:09:12;6.38;;;5.78;;
41221;SDS011;26952;42.884;23.918;2023-03-17T05:11:37;6.65;;;5.95;;
41221;SDS011;26952;42.884;23.918;2023-03-17T05:14:03;6.35;;;5.75;;
41221;SDS011;26952;42.884;23.918;2023-03-17T05:16:28;9.73;;;6.43;;
41221;SDS011;26952;42.884;23.918;2023-03-17T05:18:53;7.03;;;6.32;;
41221;SDS011;26952;42.884;23.918;2023-03-17T05:21:19;7.63;;;5.90;;
41221;SDS011;26952;42.884;23.918;2023-03-17T05:23:45;6.80;;;6.07;;
41221;SDS011;26952;42.884;23.918;2023-03-17T05:26:10;6.40;;;5.80;;
41221;SDS011;26952;42.884;23.918;2023-03-17T05:28:35;6.05;;;5.05;;
41221;SDS011;26952;42.884;23.918;2023-03-17T05:31:01;6.05;;;5.50;;
41221;SDS011;26952;42.884;23.918;2023-03-17T05:33:27;5.72;;;5.22;;
41221;SDS011;26952;42.884;23.918;2023-03-17T05:35:52;5.10;;;4.60;;
41221;SDS011;26952;42.884;23.918;2023-03-17T05:38:18;5.15;;;4.68;;
41221;SDS011;26952;42.884;23.918;2023-03-17T05:40:43;6.03;;;5.47;;
41221;SDS011;26952;42.884;23.918;2023-03-17T05:43:09;5.93;;;5.18;;
41221;SDS011;26952;42.884;23.918;2023-03-17T05:45:35;7.18;;;5.88;;
41221;SDS011;26952;42.884;23.918;2023-03-17T05:48:00;6.70;;;6.00;;
41221;SDS011;26952;42.884;23.918;2023-03-17T05:50:27;7.10;;;6.35;;
41221;SDS011;26952;42.884;23.918;2023-03-17T05:52:52;7.38;;;6.30;;
41221;SDS011;26952;42.884;23.918;2023-03-17T05:55:18;6.80;;;6.03;;
41221;SDS011;26952;42.884;23.918;2023-03-17T05:57:44;8.35;;;6.43;;
41221;SDS011;26952;42.884;23.918;2023-03-17T06:00:11;6.47;;;5.78;;
41221;SDS011;26952;42.884;23.918;2023-03-17T06:02:37;7.20;;;6.50;;
41221;SDS011;26952;42.884;23.918;2023-03-17T06:05:03;7.95;;;6.57;;
41221;SDS011;26952;42.884;23.918;2023-03-17T06:07:30;6.63;;;6.03;;
41221;SDS011;26952;42.884;23.918;2023-03-17T06:09:56;7.40;;;6.55;;
41221;SDS011;26952;42.884;23.918;2023-03-17T06:12:21;7.97;;;7.13;;
41221;SDS011;26952;42.884;23.918;2023-03-17T06:14:46;7.68;;;6.82;;
41221;SDS011;26952;42.884;23.918;2023-03-17T06:17:12;8.55;;;6.35;;
41221;SDS011;26952;42.884;23.918;2023-03-17T06:19:38;6.90;;;6.18;;
41221;SDS011;26952;42.884;23.918;2023-03-17T06:22:03;7.85;;;7.05;;
41221;SDS011;26952;42.884;23.918;2023-03-17T06:24:29;7.60;;;6.63;;
41221;SDS011;26952;42.884;23.918;2023-03-17T06:26:55;7.65;;;6.85;;
41221;SDS011;26952;42.884;23.918;2023-03-17T06:29:20;7.95;;;7.15;;
41221;SDS011;26952;42.884;23.918;2023-03-17T06:31:46;8.30;;;7.50;;
41221;SDS011;26952;42.884;23.918;2023-03-17T06:34:17;8.05;;;7.25;;
41221;SDS011;26952;42.884;23.918;2023-03-17T06:36:44;8.13;;;7.32;;
41221;SDS011;26952;42.884;23.918;2023-03-17T06:39:10;7.97;;;7.18;;
41221;SDS011;26952;42.884;23.918;2023-03-17T06:41:36;7.57;;;6.90;;
41221;SDS011;26952;42.884;23.918;2023-03-17T06:44:02;7.47;;;6.78;;
41221;SDS011;26952;42.884;23.918;2023-03-17T06:46:29;8.00;;;7.25;;
41221;SDS011;26952;42.884;23.918;2023-03-17T06:48:55;7.35;;;6.65;;
41221;SDS011;26952;42.884;23.918;2023-03-17T06:51:21;8.18;;;6.72;;
41221;SDS011;26952;42.884;23.918;2023-03-17T06:53:46;7.50;;;6.80;;
41221;SDS011;26952;42.884;23.918;2023-03-17T06:56:12;6.40;;;5.90;;
41221;SDS011;26952;42.884;23.918;2023-03-17T06:58:37;7.57;;;6.88;;
41221;SDS011;26952;42.884;23.918;2023-03-17T07:01:03;8.45;;;7.65;;
41221;SDS011;26952;42.884;23.918;2023-03-17T07:03:31;8.80;;;7.80;;
41221;SDS011;26952;42.884;23.918;2023-03-17T07:05:57;10.45;;;9.48;;
41221;SDS011;26952;42.884;23.918;2023-03-17T07:08:22;9.38;;;8.48;;
41221;SDS011;26952;42.884;23.918;2023-03-17T07:10:47;9.68;;;8.45;;
41221;SDS011;26952;42.884;23.918;2023-03-17T07:13:13;8.95;;;8.07;;
41221;SDS011;26952;42.884;23.918;2023-03-17T07:15:39;9.30;;;8.40;;
41221;SDS011;26952;42.884;23.918;2023-03-17T07:18:04;8.60;;;7.32;;
41221;SDS011;26952;42.884;23.918;2023-03-17T07:20:31;6.97;;;6.28;;
41221;SDS011;26952;42.884;23.918;2023-03-17T07:22:56;8.70;;;7.70;;
41221;SDS011;26952;42.884;23.918;2023-03-17T07:25:22;11.25;;;10.27;;
41221;SDS011;26952;42.884;23.918;2023-03-17T07:27:47;9.55;;;8.75;;
41221;SDS011;26952;42.884;23.918;2023-03-17T07:30:13;9.68;;;8.88;;
41221;SDS011;26952;42.884;23.918;2023-03-17T07:32:43;9.43;;;8.63;;
41221;SDS011;26952;42.884;23.918;2023-03-17T07:35:12;9.23;;;8.43;;
41221;SDS011;26952;42.884;23.918;2023-03-17T07:37:39;8.50;;;7.72;;
41221;SDS011;26952;42.884;23.918;2023-03-17T07:40:06;8.48;;;7.70;;
41221;SDS011;26952;42.884;23.918;2023-03-17T07:42:33;7.32;;;6.72;;
41221;SDS011;26952;42.884;23.918;2023-03-17T07:44:59;6.57;;;5.97;;
41221;SDS011;26952;42.884;23.918;2023-03-17T07:47:25;6.97;;;5.78;;
41221;SDS011;26952;42.884;23.918;2023-03-17T07:49:51;6.00;;;5.40;;
41221;SDS011;26952;42.884;23.918;2023-03-17T07:52:16;6.80;;;5.78;;
41221;SDS011;26952;42.884;23.918;2023-03-17T07:54:43;5.70;;;5.15;;
41221;SDS011;26952;42.884;23.918;2023-03-17T07:57:08;5.70;;;5.05;;
41221;SDS011;26952;42.884;23.918;2023-03-17T07:59:35;8.70;;;7.90;;
41221;SDS011;26952;42.884;23.918;2023-03-17T08:02:00;9.77;;;8.80;;
41221;SDS011;26952;42.884;23.918;2023-03-17T08:04:26;10.48;;;9.63;;
41221;SDS011;26952;42.884;23.918;2023-03-17T08:06:52;10.57;;;9.77;;
41221;SDS011;26952;42.884;23.918;2023-03-17T08:09:18;11.80;;;10.88;;
41221;SDS011;26952;42.884;23.918;2023-03-17T08:11:46;11.13;;;10.13;;
41221;SDS011;26952;42.884;23.918;2023-03-17T08:14:12;9.50;;;8.85;;
41221;SDS011;26952;42.884;23.918;2023-03-17T08:16:37;7.57;;;7.05;;
41221;SDS011;26952;42.884;23.918;2023-03-17T08:19:03;8.18;;;7.57;;
41221;SDS011;26952;42.884;23.918;2023-03-17T08:21:29;8.35;;;7.75;;
41221;SDS011;26952;42.884;23.918;2023-03-17T08:23:54;9.32;;;8.50;;
41221;SDS011;26952;42.884;23.918;2023-03-17T08:26:20;7.72;;;7.13;;
41221;SDS011;26952;42.884;23.918;2023-03-17T08:28:46;6.55;;;5.95;;
41221;SDS011;26952;42.884;23.918;2023-03-17T08:31:14;6.38;;;5.88;;
41221;SDS011;26952;42.884;23.918;2023-03-17T08:33:42;6.30;;;5.70;;
41221;SDS011;26952;42.884;23.918;2023-03-17T08:36:10;6.57;;;6.05;;
41221;SDS011;26952;42.884;23.918;2023-03-17T08:38:37;7.22;;;6.63;;
41221;SDS011;26952;42.884;23.918;2023-03-17T08:41:07;5.97;;;5.47;;
41221;SDS011;26952;42.884;23.918;2023-03-17T08:43:36;6.47;;;5.90;;
41221;SDS011;26952;42.884;23.918;2023-03-17T08:46:06;6.18;;;5.57;;
41221;SDS011;26952;42.884;23.918;2023-03-17T08:48:36;6.72;;;5.68;;
41221;SDS011;26952;42.884;23.918;2023-03-17T08:51:02;5.68;;;5.15;;
41221;SDS011;26952;42.884;23.918;2023-03-17T08:53:29;6.88;;;6.22;;
41221;SDS011;26952;42.884;23.918;2023-03-17T08:55:55;7.90;;;7.13;;
41221;SDS011;26952;42.884;23.918;2023-03-17T08:58:21;6.63;;;5.93;;
41221;SDS011;26952;42.884;23.918;2023-03-17T09:00:47;6.20;;;5.53;;
41221;SDS011;26952;42.884;23.918;2023-03-17T09:03:13;6.40;;;5.80;;
41221;SDS011;26952;42.884;23.918;2023-03-17T09:05:39;6.60;;;5.93;;
41221;SDS011;26952;42.884;23.918;2023-03-17T09:08:06;7.57;;;6.65;;
41221;SDS011;26952;42.884;23.918;2023-03-17T09:10:32;7.80;;;5.65;;
41221;SDS011;26952;42.884;23.918;2023-03-17T09:12:58;6.25;;;5.20;;
41221;SDS011;26952;42.884;23.918;2023-03-17T09:15:27;6.10;;;5.50;;
41221;SDS011;26952;42.884;23.918;2023-03-17T09:17:54;5.72;;;5.13;;
41221;SDS011;26952;42.884;23.918;2023-03-17T09:20:19;6.55;;;5.55;;
41221;SDS011;26952;42.884;23.918;2023-03-17T09:22:46;6.93;;;5.72;;
41221;SDS011;26952;42.884;23.918;2023-03-17T09:25:13;6.55;;;5.95;;
41221;SDS011;26952;42.884;23.918;2023-03-17T09:27:39;6.63;;;5.88;;
41221;SDS011;26952;42.884;23.918;2023-03-17T09:30:05;7.53;;;5.85;;
41221;SDS011;26952;42.884;23.918;2023-03-17T09:32:33;7.40;;;6.35;;
41221;SDS011;26952;42.884;23.918;2023-03-17T09:34:59;6.80;;;6.15;;
41221;SDS011;26952;42.884;23.918;2023-03-17T09:37:24;7.10;;;6.28;;
41221;SDS011;26952;42.884;23.918;2023-03-17T09:39:50;9.65;;;8.07;;
41221;SDS011;26952;42.884;23.918;2023-03-17T09:43:04;9.07;;;8.38;;
41221;SDS011;26952;42.884;23.918;2023-03-17T09:45:05;8.05;;;6.32;;
41221;SDS011;26952;42.884;23.918;2023-03-17T09:53:33;6.00;;;5.05;;
41221;SDS011;26952;42.884;23.918;2023-03-17T09:56:05;5.60;;;5.07;;
41221;SDS011;26952;42.884;23.918;2023-03-17T09:58:35;6.00;;;5.15;;
41221;SDS011;26952;42.884;23.918;2023-03-17T10:01:03;5.43;;;4.85;;
41221;SDS011;26952;42.884;23.918;2023-03-17T10:03:31;10.07;;;9.27;;
41221;SDS011;26952;42.884;23.918;2023-03-17T10:06:00;10.43;;;9.70;;
41221;SDS011;26952;42.884;23.918;2023-03-17T10:08:50;11.07;;;10.07;;
41221;SDS011;26952;42.884;23.918;2023-03-17T10:11:36;12.23;;;11.18;;
41221;SDS011;26952;42.884;23.918;2023-03-17T10:14:17;11.63;;;10.73;;
41221;SDS011;26952;42.884;23.918;2023-03-17T10:16:51;12.35;;;11.50;;
41221;SDS011;26952;42.884;23.918;2023-03-17T10:19:24;12.60;;;11.52;;
41221;SDS011;26952;42.884;23.918;2023-03-17T10:21:55;9.95;;;9.15;;
41221;SDS011;26952;42.884;23.918;2023-03-17T10:24:25;9.10;;;8.35;;
41221;SDS011;26952;42.884;23.918;2023-03-17T10:26:55;10.50;;;9.70;;
41221;SDS011;26952;42.884;23.918;2023-03-17T10:29:23;13.45;;;12.07;;
41221;SDS011;26952;42.884;23.918;2023-03-17T10:31:49;11.40;;;10.60;;
41221;SDS011;26952;42.884;23.918;2023-03-17T10:34:26;8.90;;;8.05;;
41221;SDS011;26952;42.884;23.918;2023-03-17T10:37:02;11.07;;;10.18;;
41221;SDS011;26952;42.884;23.918;2023-03-17T10:39:31;10.90;;;10.10;;
41221;SDS011;26952;42.884;23.918;2023-03-17T10:41:58;12.43;;;11.52;;
41221;SDS011;26952;42.884;23.918;2023-03-17T10:47:19;10.10;;;9.48;;
41221;SDS011;26952;42.884;23.918;2023-03-17T10:49:45;9.18;;;8.55;;
41221;SDS011;26952;42.884;23.918;2023-03-17T10:52:14;8.65;;;8.13;;
41221;SDS011;26952;42.884;23.918;2023-03-17T10:54:48;9.63;;;8.93;;
41221;SDS011;26952;42.884;23.918;2023-03-17T10:57:15;9.27;;;8.57;;
41221;SDS011;26952;42.884;23.918;2023-03-17T10:59:42;8.32;;;7.63;;
41221;SDS011;26952;42.884;23.918;2023-03-17T11:02:33;11.13;;;10.45;;
41221;SDS011;26952;42.884;23.918;2023-03-17T11:05:14;10.13;;;9.43;;
41221;SDS011;26952;42.884;23.918;2023-03-17T11:07:46;11.85;;;10.98;;
41221;SDS011;26952;42.884;23.918;2023-03-17T11:10:22;11.07;;;10.27;;
41221;SDS011;26952;42.884;23.918;2023-03-17T11:12:59;10.02;;;9.25;;
41221;SDS011;26952;42.884;23.918;2023-03-17T11:15:39;9.55;;;8.90;;
41221;SDS011;26952;42.884;23.918;2023-03-17T11:18:20;12.50;;;11.75;;
41221;SDS011;26952;42.884;23.918;2023-03-17T11:20:52;9.43;;;8.73;;
41221;SDS011;26952;42.884;23.918;2023-03-17T11:28:44;4.13;;;3.80;;
41221;SDS011;26952;42.884;23.918;2023-03-17T11:36:44;5.20;;;4.80;;
41221;SDS011;26952;42.884;23.918;2023-03-17T11:39:26;5.82;;;5.38;;
41221;SDS011;26952;42.884;23.918;2023-03-17T11:47:26;11.77;;;11.07;;
41221;SDS011;26952;42.884;23.918;2023-03-17T11:58:12;8.05;;;7.38;;
41221;SDS011;26952;42.884;23.918;2023-03-17T12:00:51;14.60;;;13.80;;
41221;SDS011;26952;42.884;23.918;2023-03-17T12:06:03;9.07;;;8.45;;
41221;SDS011;26952;42.884;23.918;2023-03-17T12:11:49;9.27;;;8.50;;
41221;SDS011;26952;42.884;23.918;2023-03-17T12:14:30;7.85;;;7.15;;
41221;SDS011;26952;42.884;23.918;2023-03-17T12:28:21;5.60;;;5.03;;
41221;SDS011;26952;42.884;23.918;2023-03-17T12:33:47;6.53;;;5.93;;
41221;SDS011;26952;42.884;23.918;2023-03-17T12:36:19;5.55;;;5.03;;
41221;SDS011;26952;42.884;23.918;2023-03-17T12:38:49;7.30;;;6.70;;
41221;SDS011;26952;42.884;23.918;2023-03-17T12:54:59;7.45;;;6.75;;
41221;SDS011;26952;42.884;23.918;2023-03-17T12:57:28;6.37;;;5.83;;
41221;SDS011;26952;42.884;23.918;2023-03-17T13:00:24;6.47;;;5.88;;
41221;SDS011;26952;42.884;23.918;2023-03-17T13:05:57;4.90;;;4.47;;
41221;SDS011;26952;42.884;23.918;2023-03-17T13:08:32;5.95;;;5.30;;
41221;SDS011;26952;42.884;23.918;2023-03-17T13:14:05;7.10;;;6.60;;
41221;SDS011;26952;42.884;23.918;2023-03-17T13:16:39;6.65;;;6.15;;
41221;SDS011;26952;42.884;23.918;2023-03-17T13:21:43;7.22;;;6.63;;
41221;SDS011;26952;42.884;23.918;2023-03-17T13:26:57;7.68;;;7.07;;
41221;SDS011;26952;42.884;23.918;2023-03-17T13:43:33;7.00;;;6.47;;
41221;SDS011;26952;42.884;23.918;2023-03-17T13:48:56;6.05;;;5.55;;
41221;SDS011;26952;42.884;23.918;2023-03-17T13:51:26;9.15;;;7.97;;
41221;SDS011;26952;42.884;23.918;2023-03-17T13:54:08;8.70;;;7.15;;
41221;SDS011;26952;42.884;23.918;2023-03-17T13:59:54;8.70;;;8.05;;
41221;SDS011;26952;42.884;23.918;2023-03-17T14:02:24;7.30;;;6.88;;
41221;SDS011;26952;42.884;23.918;2023-03-17T14:04:54;8.15;;;7.55;;
41221;SDS011;26952;42.884;23.918;2023-03-17T14:07:26;8.00;;;7.38;;
41221;SDS011;26952;42.884;23.918;2023-03-17T14:09:57;8.88;;;8.07;;
41221;SDS011;26952;42.884;23.918;2023-03-17T14:15:04;5.97;;;4.85;;
41221;SDS011;26952;42.884;23.918;2023-03-17T14:20:38;5.25;;;4.75;;
41221;SDS011;26952;42.884;23.918;2023-03-17T14:23:03;5.30;;;4.80;;
41221;SDS011;26952;42.884;23.918;2023-03-17T14:25:32;5.55;;;4.50;;
41221;SDS011;26952;42.884;23.918;2023-03-17T14:27:59;6.13;;;4.70;;
41221;SDS011;26952;42.884;23.918;2023-03-17T14:30:29;5.82;;;4.80;;
41221;SDS011;26952;42.884;23.918;2023-03-17T14:33:01;5.78;;;5.32;;
41221;SDS011;26952;42.884;23.918;2023-03-17T14:35:38;6.07;;;5.47;;
41221;SDS011;26952;42.884;23.918;2023-03-17T14:40:46;6.97;;;6.30;;
41221;SDS011;26952;42.884;23.918;2023-03-17T14:43:13;8.45;;;7.75;;
41221;SDS011;26952;42.884;23.918;2023-03-17T14:45:49;7.65;;;6.95;;
41221;SDS011;26952;42.884;23.918;2023-03-17T14:48:20;8.68;;;7.95;;
41221;SDS011;26952;42.884;23.918;2023-03-17T14:50:53;9.35;;;8.40;;
41221;SDS011;26952;42.884;23.918;2023-03-17T14:53:20;8.80;;;8.00;;
41221;SDS011;26952;42.884;23.918;2023-03-17T14:55:49;8.40;;;7.70;;
41221;SDS011;26952;42.884;23.918;2023-03-17T14:58:35;8.23;;;7.50;;
41221;SDS011;26952;42.884;23.918;2023-03-17T15:01:13;8.30;;;7.60;;
41221;SDS011;26952;42.884;23.918;2023-03-17T15:03:51;7.35;;;6.38;;
41221;SDS011;26952;42.884;23.918;2023-03-17T15:06:25;8.50;;;7.70;;
41221;SDS011;26952;42.884;23.918;2023-03-17T15:08:55;6.18;;;5.55;;
41221;SDS011;26952;42.884;23.918;2023-03-17T15:11:24;9.90;;;7.18;;
41221;SDS011;26952;42.884;23.918;2023-03-17T15:13:53;5.97;;;5.38;;
41221;SDS011;26952;42.884;23.918;2023-03-17T15:16:28;6.28;;;5.30;;
41221;SDS011;26952;42.884;23.918;2023-03-17T15:19:04;5.28;;;4.78;;
41221;SDS011;26952;42.884;23.918;2023-03-17T15:24:44;5.30;;;4.80;;
41221;SDS011;26952;42.884;23.918;2023-03-17T15:27:15;7.80;;;5.40;;
41221;SDS011;26952;42.884;23.918;2023-03-17T15:29:42;5.15;;;4.65;;
41221;SDS011;26952;42.884;23.918;2023-03-17T15:32:18;9.10;;;7.45;;
41221;SDS011;26952;42.884;23.918;2023-03-17T15:34:47;8.45;;;7.25;;
41221;SDS011;26952;42.884;23.918;2023-03-17T15:37:19;8.07;;;6.85;;
41221;SDS011;26952;42.884;23.918;2023-03-17T15:39:58;12.90;;;9.00;;
41221;SDS011;26952;42.884;23.918;2023-03-17T15:42:28;8.65;;;7.80;;
41221;SDS011;26952;42.884;23.918;2023-03-17T15:44:58;12.50;;;11.40;;
41221;SDS011;26952;42.884;23.918;2023-03-17T15:47:26;9.95;;;8.90;;
41221;SDS011;26952;42.884;23.918;2023-03-17T15:50:26;8.10;;;7.30;;
41221;SDS011;26952;42.884;23.918;2023-03-17T15:52:53;10.70;;;9.68;;
41221;SDS011;26952;42.884;23.918;2023-03-17T15:55:22;11.35;;;10.38;;
41221;SDS011;26952;42.884;23.918;2023-03-17T15:57:56;11.57;;;9.40;;
41221;SDS011;26952;42.884;23.918;2023-03-17T16:00:23;12.85;;;10.18;;
41221;SDS011;26952;42.884;23.918;2023-03-17T16:02:51;10.13;;;9.13;;
41221;SDS011;26952;42.884;23.918;2023-03-17T16:05:22;10.02;;;8.95;;
41221;SDS011;26952;42.884;23.918;2023-03-17T16:07:49;9.80;;;8.90;;
41221;SDS011;26952;42.884;23.918;2023-03-17T16:10:19;12.10;;;11.10;;
41221;SDS011;26952;42.884;23.918;2023-03-17T16:15:18;11.00;;;10.02;;
41221;SDS011;26952;42.884;23.918;2023-03-17T16:17:45;12.93;;;11.65;;
41221;SDS011;26952;42.884;23.918;2023-03-17T16:20:22;14.52;;;13.32;;
41221;SDS011;26952;42.884;23.918;2023-03-17T16:22:53;17.00;;;15.90;;
41221;SDS011;26952;42.884;23.918;2023-03-17T16:25:29;12.60;;;11.60;;
41221;SDS011;26952;42.884;23.918;2023-03-17T16:27:58;12.00;;;10.57;;
41221;SDS011;26952;42.884;23.918;2023-03-17T16:30:27;11.00;;;10.20;;
41221;SDS011;26952;42.884;23.918;2023-03-17T16:33:02;11.38;;;10.38;;
41221;SDS011;26952;42.884;23.918;2023-03-17T16:35:36;10.82;;;9.82;;
41221;SDS011;26952;42.884;23.918;2023-03-17T16:38:01;9.13;;;8.18;;